createdAt,value
2023-02-19T00:01:28.406Z,2.95
2023-02-19T00:03:56.657Z,4.63
2023-02-19T00:06:25.827Z,3.13
2023-02-19T00:08:52.897Z,3.08
2023-02-19T00:11:22.023Z,2.45
2023-02-19T00:13:51.018Z,2.72
2023-02-19T00:16:21.231Z,3.50
2023-02-19T00:18:48.138Z,3.42
2023-02-19T00:21:15.669Z,2.70
2023-02-19T00:23:42.358Z,1.50
2023-02-19T00:26:18.159Z,2.63
2023-02-19T00:28:47.723Z,1.88
2023-02-19T00:31:17.841Z,2.40
2023-02-19T00:33:46.589Z,2.28
2023-02-19T00:36:14.412Z,2.47
2023-02-19T00:38:42.442Z,2.00
2023-02-19T00:41:10.779Z,1.70
2023-02-19T00:43:37.549Z,1.73
2023-02-19T00:46:04.353Z,1.25
2023-02-19T00:48:30.992Z,1.58
2023-02-19T00:50:58.851Z,2.08
2023-02-19T00:53:25.521Z,1.80
2023-02-19T00:55:52.063Z,4.03
2023-02-19T00:58:18.688Z,1.15
2023-02-19T01:00:45.227Z,1.58
2023-02-19T01:03:11.766Z,1.90
2023-02-19T01:05:38.357Z,2.03
2023-02-19T01:08:07.047Z,4.53
2023-02-19T01:10:33.562Z,3.47
2023-02-19T01:13:00.183Z,1.95
2023-02-19T01:15:26.825Z,1.95
2023-02-19T01:17:53.479Z,1.27
2023-02-19T01:20:20.328Z,1.80
2023-02-19T01:22:46.895Z,2.42
2023-02-19T01:25:14.818Z,1.90
2023-02-19T01:27:41.428Z,3.00
2023-02-19T01:30:09.396Z,3.95
2023-02-19T01:32:36.052Z,2.78
2023-02-19T01:35:02.836Z,2.55
2023-02-19T01:37:29.484Z,2.47
2023-02-19T01:39:56.022Z,2.92
2023-02-19T01:42:24.166Z,3.28
2023-02-19T01:45:20.468Z,3.05
2023-02-19T01:47:49.280Z,4.18
2023-02-19T01:50:16.560Z,4.07
2023-02-19T01:52:43.175Z,3.65
2023-02-19T01:55:12.697Z,3.53
2023-02-19T01:57:45.229Z,5.10
2023-02-19T02:00:14.955Z,3.53
2023-02-19T02:02:44.993Z,5.40
2023-02-19T02:05:23.350Z,4.32
2023-02-19T02:07:50.367Z,3.78
2023-02-19T02:10:16.942Z,3.53
2023-02-19T02:12:44.938Z,4.28
2023-02-19T02:15:12.231Z,4.93
2023-02-19T02:17:51.906Z,5.40
2023-02-19T02:20:32.825Z,3.78
2023-02-19T02:23:07.061Z,3.95
2023-02-19T02:25:56.180Z,3.70
2023-02-19T02:28:40.553Z,4.60
2023-02-19T02:31:13.953Z,4.85
2023-02-19T02:33:46.555Z,3.95
2023-02-19T02:36:18.289Z,5.65
2023-02-19T02:41:14.856Z,3.50
2023-02-19T02:43:41.945Z,3.28
2023-02-19T02:46:12.239Z,3.60
2023-02-19T02:48:43.320Z,3.95
2023-02-19T02:51:15.828Z,3.63
2023-02-19T02:53:54.492Z,3.50
2023-02-19T02:56:22.237Z,5.43
2023-02-19T02:58:50.189Z,4.25
2023-02-19T03:01:23.741Z,5.20
2023-02-19T03:03:57.253Z,5.20
2023-02-19T03:06:28.281Z,3.95
2023-02-19T03:08:59.194Z,3.97
2023-02-19T03:11:25.937Z,4.73
2023-02-19T03:13:58.181Z,3.70
2023-02-19T03:16:31.039Z,2.95
2023-02-19T03:18:59.436Z,3.45
2023-02-19T03:21:28.301Z,3.67
2023-02-19T03:23:57.252Z,4.85
2023-02-19T03:26:26.055Z,6.22
2023-02-19T03:28:53.814Z,6.25
2023-02-19T03:31:24.633Z,4.72
2023-02-19T03:34:00.117Z,6.03
2023-02-19T03:36:33.489Z,6.25
2023-02-19T03:39:03.459Z,6.00
2023-02-19T03:41:35.204Z,6.70
2023-02-19T03:44:10.175Z,7.15
2023-02-19T03:46:45.774Z,5.97
2023-02-19T03:49:18.743Z,7.78
2023-02-19T03:51:50.957Z,5.47
2023-02-19T03:54:23.217Z,6.35
2023-02-19T03:56:54.848Z,8.57
2023-02-19T03:59:30.280Z,9.10
2023-02-19T04:02:02.830Z,6.72
2023-02-19T04:04:33.965Z,7.45
2023-02-19T04:07:00.739Z,9.95
2023-02-19T04:09:36.324Z,7.72
2023-02-19T04:12:09.120Z,8.43
2023-02-19T04:14:40.870Z,9.77
2023-02-19T04:17:14.015Z,11.32
2023-02-19T04:19:42.827Z,7.57
2023-02-19T04:22:11.035Z,9.63
2023-02-19T04:24:40.898Z,10.93
2023-02-19T04:27:09.087Z,10.73
2023-02-19T04:29:37.126Z,9.93
2023-02-19T04:32:05.212Z,9.13
2023-02-19T04:34:31.754Z,10.13
2023-02-19T04:36:59.637Z,12.18
2023-02-19T04:39:26.199Z,11.07
2023-02-19T04:41:52.803Z,10.75
2023-02-19T04:44:19.425Z,13.40
2023-02-19T04:46:45.924Z,9.82
2023-02-19T04:49:12.484Z,10.65
2023-02-19T04:51:39.252Z,10.57
2023-02-19T04:54:07.562Z,13.50
2023-02-19T04:56:34.166Z,11.35
2023-02-19T04:59:00.700Z,13.55
2023-02-19T05:01:27.235Z,13.85
2023-02-19T05:03:53.779Z,9.52
2023-02-19T05:06:20.570Z,11.23
2023-02-19T05:08:47.097Z,11.95
2023-02-19T05:11:15.051Z,9.70
2023-02-19T05:13:41.620Z,12.60
2023-02-19T05:16:13.369Z,15.02
2023-02-19T05:21:06.695Z,11.88
2023-02-19T05:23:33.357Z,16.48
2023-02-19T05:26:03.873Z,13.98
2023-02-19T05:28:31.825Z,13.80
2023-02-19T05:30:58.395Z,17.25
2023-02-19T05:33:25.939Z,14.55
2023-02-19T05:35:54.237Z,13.20
2023-02-19T05:38:21.853Z,15.55
2023-02-19T05:40:48.495Z,19.63
2023-02-19T05:43:15.514Z,18.98
2023-02-19T05:45:43.872Z,12.27
2023-02-19T05:48:11.204Z,13.63
2023-02-19T05:50:39.723Z,16.02
2023-02-19T05:53:12.748Z,14.30
2023-02-19T05:55:39.337Z,17.30
2023-02-19T05:58:05.937Z,14.02
2023-02-19T06:00:33.443Z,12.70
2023-02-19T06:03:01.452Z,14.65
2023-02-19T06:05:28.409Z,16.75
2023-02-19T06:07:54.973Z,16.10
2023-02-19T06:10:22.445Z,13.68
2023-02-19T06:12:52.609Z,13.18
2023-02-19T06:15:19.205Z,12.48
2023-02-19T06:17:45.704Z,14.32
2023-02-19T06:20:13.752Z,17.25
2023-02-19T06:22:40.284Z,13.73
2023-02-19T06:25:07.329Z,13.02
2023-02-19T06:27:36.237Z,15.45
2023-02-19T06:30:03.067Z,13.80
2023-02-19T06:32:29.668Z,15.15
2023-02-19T06:34:56.465Z,13.52
2023-02-19T06:37:24.360Z,12.77
2023-02-19T06:39:51.031Z,14.10
2023-02-19T06:42:17.669Z,13.25
2023-02-19T06:44:44.261Z,13.52
2023-02-19T06:47:10.801Z,15.40
2023-02-19T06:49:38.906Z,16.23
2023-02-19T06:52:05.501Z,17.95
2023-02-19T06:54:33.400Z,15.23
2023-02-19T06:57:01.301Z,22.75
2023-02-19T06:59:28.090Z,18.63
2023-02-19T07:01:54.602Z,15.57
2023-02-19T07:04:21.267Z,19.80
2023-02-19T07:06:53.695Z,17.17
2023-02-19T07:09:22.183Z,16.83
2023-02-19T07:11:50.058Z,16.98
2023-02-19T07:14:17.263Z,17.42
2023-02-19T07:16:44.436Z,16.85
2023-02-19T07:19:11.134Z,13.95
2023-02-19T07:21:38.005Z,22.05
2023-02-19T07:24:05.222Z,17.77
2023-02-19T07:26:32.259Z,16.67
2023-02-19T07:29:00.435Z,16.23
2023-02-19T07:31:27.403Z,18.60
2023-02-19T07:33:54.816Z,13.10
2023-02-19T07:36:23.010Z,16.70
2023-02-19T07:38:54.032Z,13.60
2023-02-19T07:41:23.967Z,15.17
2023-02-19T07:43:50.546Z,14.93
2023-02-19T07:46:18.442Z,16.55
2023-02-19T07:48:45.449Z,18.42
2023-02-19T07:51:14.404Z,16.13
2023-02-19T07:53:40.948Z,16.73
2023-02-19T07:56:08.538Z,20.05
2023-02-19T07:58:35.534Z,15.90
2023-02-19T08:01:10.885Z,18.58
2023-02-19T08:03:39.328Z,15.60
2023-02-19T08:06:06.690Z,16.75
2023-02-19T08:08:33.952Z,14.65
2023-02-19T08:11:01.517Z,16.50
2023-02-19T08:13:29.939Z,14.38
2023-02-19T08:16:18.233Z,17.52
2023-02-19T08:21:16.372Z,15.90
2023-02-19T08:23:43.180Z,14.82
2023-02-19T08:26:09.696Z,18.27
2023-02-19T08:28:36.744Z,17.23
2023-02-19T08:31:12.174Z,15.77
2023-02-19T08:33:39.929Z,15.95
2023-02-19T08:36:10.887Z,16.70
2023-02-19T08:38:37.648Z,16.52
2023-02-19T08:41:05.924Z,14.88
2023-02-19T08:43:33.022Z,15.43
2023-02-19T08:46:00.123Z,16.88
2023-02-19T08:48:27.085Z,18.17
2023-02-19T08:50:55.193Z,18.77
2023-02-19T08:53:23.801Z,16.27
2023-02-19T08:55:50.782Z,15.05
2023-02-19T08:58:17.456Z,14.80
2023-02-19T09:00:44.102Z,15.00
2023-02-19T09:03:10.847Z,14.15
2023-02-19T09:05:37.747Z,12.52
2023-02-19T09:08:04.465Z,12.98
2023-02-19T09:10:32.508Z,19.30
2023-02-19T09:12:59.249Z,16.55
2023-02-19T09:15:26.178Z,16.92
2023-02-19T09:17:53.178Z,13.23
2023-02-19T09:20:20.153Z,12.32
2023-02-19T09:22:47.119Z,18.23
2023-02-19T09:25:13.917Z,21.90
2023-02-19T09:27:41.877Z,19.02
2023-02-19T09:30:09.010Z,18.27
2023-02-19T09:32:35.694Z,28.38
2023-02-19T09:35:02.216Z,17.48
2023-02-19T09:37:28.804Z,19.10
2023-02-19T09:39:55.630Z,18.50
2023-02-19T09:42:24.470Z,14.50
2023-02-19T09:44:57.462Z,17.70
2023-02-19T09:47:26.117Z,17.88
2023-02-19T09:49:55.764Z,19.50
2023-02-19T09:52:31.454Z,18.00
2023-02-19T09:55:01.314Z,18.27
2023-02-19T09:57:30.959Z,16.95
2023-02-19T10:00:04.320Z,16.10
2023-02-19T10:02:31.602Z,16.23
2023-02-19T10:04:58.715Z,14.52
2023-02-19T10:07:29.967Z,15.75
2023-02-19T10:10:00.159Z,18.92
2023-02-19T10:12:30.080Z,16.42
2023-02-19T10:15:05.130Z,13.93
2023-02-19T10:17:32.470Z,17.23
2023-02-19T10:19:59.051Z,15.20
2023-02-19T10:22:25.875Z,10.10
2023-02-19T10:24:55.982Z,13.38
2023-02-19T10:27:25.162Z,13.10
2023-02-19T10:29:54.429Z,21.60
2023-02-19T10:32:24.567Z,14.85
2023-02-19T10:35:09.993Z,11.90
2023-02-19T10:37:43.074Z,13.10
2023-02-19T10:40:16.109Z,11.73
2023-02-19T10:42:46.111Z,13.40
2023-02-19T10:45:19.815Z,12.00
2023-02-19T10:47:48.072Z,13.63
2023-02-19T10:50:23.585Z,11.07
2023-02-19T10:52:53.577Z,16.42
2023-02-19T10:55:27.576Z,12.73
2023-02-19T10:57:54.209Z,14.23
2023-02-19T11:00:23.724Z,15.45
2023-02-19T11:03:19.091Z,11.80
2023-02-19T11:06:00.810Z,14.50
2023-02-19T11:08:28.152Z,17.15
2023-02-19T11:10:54.928Z,16.08
2023-02-19T11:13:28.464Z,12.07
2023-02-19T11:15:56.243Z,17.23
2023-02-19T11:18:27.017Z,15.25
2023-02-19T11:20:56.517Z,13.73
2023-02-19T11:23:27.642Z,11.65
2023-02-19T11:25:57.319Z,10.00
2023-02-19T11:28:30.768Z,11.80
2023-02-19T11:31:14.582Z,11.52
2023-02-19T11:33:52.277Z,11.90
2023-02-19T11:36:31.307Z,10.40
2023-02-19T11:39:02.600Z,8.73
2023-02-19T11:42:03.800Z,10.82
2023-02-19T11:44:46.489Z,11.85
2023-02-19T11:47:51.164Z,22.98
2023-02-19T11:50:26.915Z,45.15
2023-02-19T11:53:07.137Z,19.48
2023-02-19T11:55:53.796Z,14.65
2023-02-19T11:58:55.294Z,15.10
2023-02-19T12:01:26.945Z,10.70
2023-02-19T12:06:44.794Z,11.98
2023-02-19T12:09:28.665Z,11.52
2023-02-19T12:12:38.186Z,9.73
2023-02-19T12:15:35.299Z,12.02
2023-02-19T12:18:24.347Z,13.35
2023-02-19T12:21:04.299Z,12.05
2023-02-19T12:24:11.539Z,10.25
2023-02-19T12:26:47.519Z,12.20
2023-02-19T12:29:32.451Z,10.68
2023-02-19T12:32:18.140Z,9.23
2023-02-19T12:35:02.459Z,10.48
2023-02-19T12:37:40.937Z,11.68
2023-02-19T12:40:25.587Z,8.20
2023-02-19T12:43:04.951Z,9.02
2023-02-19T12:45:37.752Z,8.15
2023-02-19T12:48:14.083Z,9.35
2023-02-19T12:50:41.957Z,9.82
2023-02-19T12:53:24.679Z,9.32
2023-02-19T12:55:53.748Z,9.98
2023-02-19T12:58:29.175Z,10.73
2023-02-19T13:00:57.104Z,10.30
2023-02-19T13:03:30.347Z,5.90
2023-02-19T13:06:02.915Z,9.07
2023-02-19T13:08:36.513Z,8.55
2023-02-19T13:11:09.555Z,9.05
2023-02-19T13:13:40.773Z,8.85
2023-02-19T13:16:11.426Z,9.75
2023-02-19T13:18:43.924Z,10.73
2023-02-19T13:21:12.404Z,8.70
2023-02-19T13:23:42.979Z,6.05
2023-02-19T13:26:31.125Z,7.40
2023-02-19T13:29:09.925Z,7.95
2023-02-19T13:31:53.630Z,7.20
2023-02-19T13:34:33.492Z,10.02
2023-02-19T13:37:01.297Z,8.00
2023-02-19T13:39:29.243Z,9.30
2023-02-19T13:41:59.261Z,6.72
2023-02-19T13:44:28.568Z,6.20
2023-02-19T13:46:55.296Z,7.68
2023-02-19T13:49:48.801Z,9.45
2023-02-19T13:52:40.504Z,6.63
2023-02-19T13:55:44.123Z,7.75
2023-02-19T13:58:50.247Z,10.20
2023-02-19T14:01:18.375Z,6.38
2023-02-19T14:03:48.243Z,8.35
2023-02-19T14:06:14.852Z,9.13
2023-02-19T14:08:49.760Z,6.45
2023-02-19T14:11:17.658Z,8.32
2023-02-19T14:14:24.416Z,6.80
2023-02-19T14:16:56.869Z,8.80
2023-02-19T14:19:58.479Z,6.32
2023-02-19T14:22:47.519Z,7.35
2023-02-19T14:25:26.980Z,6.88
2023-02-19T14:27:57.001Z,6.13
2023-02-19T14:30:24.101Z,5.55
2023-02-19T14:33:02.739Z,5.32
2023-02-19T14:35:40.285Z,8.45
2023-02-19T14:38:14.212Z,6.43
2023-02-19T14:40:42.060Z,5.95
2023-02-19T14:43:14.138Z,6.85
2023-02-19T14:45:43.750Z,8.80
2023-02-19T14:48:21.169Z,9.05
2023-02-19T14:50:50.794Z,8.65
2023-02-19T14:53:20.280Z,10.75
2023-02-19T14:55:47.865Z,7.30
2023-02-19T14:58:19.721Z,7.93
2023-02-19T15:00:46.454Z,10.65
2023-02-19T15:03:29.759Z,9.05
2023-02-19T15:06:00.665Z,8.27
2023-02-19T15:08:32.410Z,10.18
2023-02-19T15:10:59.435Z,8.40
2023-02-19T15:13:29.191Z,10.18
2023-02-19T15:15:57.044Z,10.80
2023-02-19T15:18:25.268Z,13.63
2023-02-19T15:20:59.923Z,10.70
2023-02-19T15:23:27.676Z,13.30
2023-02-19T15:25:54.357Z,11.73
2023-02-19T15:28:30.324Z,10.45
2023-02-19T15:31:14.025Z,12.80
2023-02-19T15:33:49.183Z,12.60
2023-02-19T15:36:24.675Z,10.52
2023-02-19T15:38:56.715Z,12.25
2023-02-19T15:41:26.396Z,11.88
2023-02-19T15:43:59.127Z,11.38
2023-02-19T15:46:26.108Z,11.52
2023-02-19T15:48:59.478Z,11.15
2023-02-19T15:51:34.709Z,9.40
2023-02-19T15:54:07.338Z,11.15
2023-02-19T15:56:37.896Z,13.02
2023-02-19T15:59:12.041Z,11.57
2023-02-19T16:01:39.831Z,13.90
2023-02-19T16:04:12.179Z,14.23
2023-02-19T16:06:53.205Z,12.30
2023-02-19T16:09:21.698Z,16.50
2023-02-19T16:11:51.071Z,13.60
2023-02-19T16:14:29.044Z,15.75
2023-02-19T16:16:58.367Z,12.25
2023-02-19T16:19:28.643Z,13.25
2023-02-19T16:21:58.126Z,14.05
2023-02-19T16:24:30.992Z,13.60
2023-02-19T16:26:58.824Z,14.05
2023-02-19T16:29:27.896Z,18.02
2023-02-19T16:31:57.094Z,11.95
2023-02-19T16:34:32.629Z,16.30
2023-02-19T16:37:01.781Z,12.55
2023-02-19T16:39:28.472Z,16.05
2023-02-19T16:42:15.987Z,13.00
2023-02-19T16:44:43.519Z,10.82
2023-02-19T16:47:30.847Z,13.05
2023-02-19T16:50:00.016Z,11.45
2023-02-19T16:52:28.835Z,13.45
2023-02-19T16:54:55.447Z,14.13
2023-02-19T16:57:22.072Z,9.60
2023-02-19T16:59:48.680Z,9.18
2023-02-19T17:02:22.135Z,9.18
2023-02-19T17:04:49.234Z,10.00
2023-02-19T17:07:17.494Z,10.25
2023-02-19T17:09:45.691Z,11.57
2023-02-19T17:12:13.383Z,12.38
2023-02-19T17:14:40.424Z,10.63
2023-02-19T17:17:07.190Z,13.98
2023-02-19T17:19:33.879Z,9.93
2023-02-19T17:22:00.493Z,11.77
2023-02-19T17:24:27.198Z,12.23
2023-02-19T17:26:55.070Z,18.42
2023-02-19T17:29:21.761Z,15.10
2023-02-19T17:31:48.405Z,9.45
2023-02-19T17:34:15.086Z,12.18
2023-02-19T17:36:41.692Z,9.27
2023-02-19T17:39:13.893Z,11.50
2023-02-19T17:41:40.961Z,10.63
2023-02-19T17:44:08.989Z,10.43
2023-02-19T17:46:35.852Z,11.43
2023-02-19T17:49:02.432Z,12.30
2023-02-19T17:51:29.101Z,10.55
2023-02-19T17:53:55.701Z,10.50
2023-02-19T17:56:24.420Z,14.88
2023-02-19T17:58:51.791Z,13.82
2023-02-19T18:01:20.314Z,12.95
2023-02-19T18:03:47.276Z,13.30
2023-02-19T18:06:14.275Z,13.23
2023-02-19T18:08:46.980Z,11.10
2023-02-19T18:11:13.870Z,16.13
2023-02-19T18:13:40.493Z,12.98
2023-02-19T18:16:07.377Z,12.80
2023-02-19T18:18:35.624Z,14.38
2023-02-19T18:21:02.294Z,15.77
2023-02-19T18:23:29.032Z,12.13
2023-02-19T18:25:55.631Z,13.00
2023-02-19T18:28:22.320Z,13.18
2023-02-19T18:30:49.139Z,11.25
2023-02-19T18:33:15.717Z,11.27
2023-02-19T18:35:43.669Z,12.27
2023-02-19T18:38:10.193Z,14.52
2023-02-19T18:40:36.766Z,11.93
2023-02-19T18:43:04.402Z,12.60
2023-02-19T18:45:31.135Z,12.48
2023-02-19T18:47:57.638Z,10.20
2023-02-19T18:50:24.188Z,11.23
2023-02-19T18:52:52.084Z,10.23
2023-02-19T18:55:18.769Z,9.00
2023-02-19T18:57:46.145Z,8.57
2023-02-19T19:00:19.145Z,9.63
2023-02-19T19:02:49.818Z,8.48
2023-02-19T19:05:19.351Z,8.07
2023-02-19T19:07:45.842Z,9.00
2023-02-19T19:10:13.778Z,10.05
2023-02-19T19:12:40.279Z,7.40
2023-02-19T19:15:07.514Z,8.07
2023-02-19T19:17:34.017Z,6.05
2023-02-19T19:20:00.591Z,6.88
2023-02-19T19:22:27.388Z,5.82
2023-02-19T19:24:53.948Z,7.05
2023-02-19T19:27:21.857Z,8.77
2023-02-19T19:29:48.682Z,5.97
2023-02-19T19:32:15.793Z,4.60
2023-02-19T19:34:42.569Z,5.80
2023-02-19T19:37:09.605Z,5.10
2023-02-19T19:39:36.298Z,6.18
2023-02-19T19:42:02.986Z,4.38
2023-02-19T19:44:30.903Z,8.32
2023-02-19T19:46:57.556Z,6.60
2023-02-19T19:49:24.682Z,8.40
2023-02-19T19:51:51.773Z,8.98
2023-02-19T19:54:19.489Z,11.48
2023-02-19T19:56:47.378Z,4.07
2023-02-19T19:59:16.944Z,6.93
2023-02-19T20:01:50.144Z,6.22
2023-02-19T20:04:17.413Z,4.57
2023-02-19T20:06:44.115Z,7.75
2023-02-19T20:09:11.198Z,7.07
2023-02-19T20:11:44.060Z,4.60
2023-02-19T20:14:10.733Z,5.22
2023-02-19T20:16:37.449Z,4.47
2023-02-19T20:19:05.675Z,5.95
2023-02-19T20:21:32.263Z,5.50
2023-02-19T20:23:59.355Z,4.90
2023-02-19T20:26:28.212Z,5.32
2023-02-19T20:28:55.573Z,4.97
2023-02-19T20:31:22.934Z,4.72
2023-02-19T20:33:50.480Z,4.28
2023-02-19T20:36:19.006Z,5.55
2023-02-19T20:38:46.119Z,5.38
2023-02-19T20:41:13.093Z,6.05
2023-02-19T20:43:39.801Z,7.28
2023-02-19T20:46:06.396Z,5.93
2023-02-19T20:48:33.226Z,7.90
2023-02-19T20:50:59.765Z,6.05
2023-02-19T20:53:28.810Z,5.75
2023-02-19T20:55:55.830Z,6.07
2023-02-19T20:58:23.045Z,6.45
2023-02-19T21:00:49.671Z,6.90
2023-02-19T21:03:16.270Z,5.18
2023-02-19T21:05:42.800Z,6.35
2023-02-19T21:08:09.342Z,6.15
2023-02-19T21:10:37.363Z,6.47
2023-02-19T21:13:04.202Z,4.93
2023-02-19T21:15:30.711Z,6.13
2023-02-19T21:17:57.419Z,4.88
2023-02-19T21:20:23.940Z,7.28
2023-02-19T21:22:50.539Z,5.82
2023-02-19T21:25:17.210Z,5.00
2023-02-19T21:27:45.393Z,6.85
2023-02-19T21:30:12.345Z,5.20
2023-02-19T21:32:38.919Z,5.30
2023-02-19T21:35:05.932Z,5.88
2023-02-19T21:37:32.548Z,5.65
2023-02-19T21:39:59.079Z,6.45
2023-02-19T21:42:27.907Z,6.53
2023-02-19T21:44:55.969Z,5.60
2023-02-19T21:47:22.500Z,6.00
2023-02-19T21:49:49.025Z,6.13
2023-02-19T21:52:15.695Z,5.25
2023-02-19T21:54:42.201Z,4.82
2023-02-19T21:57:08.904Z,7.00
2023-02-19T21:59:35.432Z,5.47
2023-02-19T22:02:03.450Z,5.85
2023-02-19T22:04:30.107Z,3.70
2023-02-19T22:06:56.836Z,3.45
2023-02-19T22:09:23.360Z,5.40
2023-02-19T22:11:50.035Z,4.70
2023-02-19T22:14:16.549Z,5.03
2023-02-19T22:16:43.168Z,5.80
2023-02-19T22:19:12.369Z,3.17
2023-02-19T22:21:42.901Z,4.07
2023-02-19T22:24:14.885Z,4.28
2023-02-19T22:26:41.480Z,3.78
2023-02-19T22:29:10.147Z,4.00
2023-02-19T22:31:37.067Z,4.43
2023-02-19T22:34:04.128Z,3.95
2023-02-19T22:36:33.734Z,5.70
2023-02-19T22:39:01.327Z,4.32
2023-02-19T22:41:28.511Z,5.20
2023-02-19T22:43:55.847Z,4.32
2023-02-19T22:46:24.142Z,6.95
2023-02-19T22:48:51.110Z,5.78
2023-02-19T22:51:19.467Z,4.13
2023-02-19T22:53:49.811Z,4.30
2023-02-19T22:56:18.185Z,3.88
2023-02-19T22:58:44.999Z,3.75
2023-02-19T23:01:13.128Z,5.80
2023-02-19T23:03:45.658Z,5.70
2023-02-19T23:06:12.546Z,4.90
2023-02-19T23:08:39.324Z,5.43
2023-02-19T23:11:07.538Z,4.70
2023-02-19T23:13:34.028Z,4.43
2023-02-19T23:16:01.060Z,4.15
2023-02-19T23:18:27.597Z,11.85
2023-02-19T23:20:54.165Z,8.32
2023-02-19T23:23:20.725Z,9.32
2023-02-19T23:25:47.340Z,5.85
2023-02-19T23:28:15.407Z,5.47
2023-02-19T23:30:42.484Z,6.03
2023-02-19T23:33:09.074Z,6.97
2023-02-19T23:35:35.825Z,6.47
2023-02-19T23:38:02.671Z,5.18
2023-02-19T23:40:29.633Z,4.93
2023-02-19T23:42:56.134Z,4.68
2023-02-19T23:45:24.309Z,7.28
2023-02-19T23:47:51.069Z,5.15
2023-02-19T23:50:18.550Z,5.82
2023-02-19T23:52:45.142Z,10.20
2023-02-19T23:55:11.788Z,9.25
2023-02-19T23:57:38.312Z,6.32
